Wishon, California
Current Conditions -  °F | °C
As of 3:53 PM on Thursday 27 Nov 2014 (Local Time) from KFAT Reporting Station
Haze Haze  
Wind Chill: 71°   Ceiling: Unl
Heat Index: 71°   Visibility: 6mi
Dew Point: 44°   Wind: 0mph
Humidity: 38%   Direction: NA
Pressure: 30.08"   Gusts: NA
Location:  37.27°N, 119.54°W
Report Text: KFAT 272353Z 00000KT 6SM HZ FEW150 FEW200 22/07 A3008 RMK AO2 SLP183 T02170067 10222 20139 56015
Loading
Personal Weather Stations






























Interactive Weather Map New forecast layout! Learn more

10-Day Weather Forecast

Advertisements
Track Severe Weather on mobile